Terminal Aerodrome Forecast
Issued by NWS

Home | Current Version | Previous Version | Text Only | Print | Product List | Glossary On
Versions: 1 2 3 4 5 6 7 8 9 10 11 12 13 14 15 16 17 18 19 20 21
000
FTUS46 KMTR 192300
TAFMRY
TAF
KMRY 192320Z 2000/2024 25010KT P6SM BKN018
     FM200300 24004KT P6SM OVC010
     FM201800 29009KT P6SM FEW012=

USA.gov is the U.S. government's official web portal to all federal, state and local government web resources and services.